createdAt,value
2018-01-06T00:00:10.970Z,0.94
2018-01-06T00:09:51.647Z,0.83
2018-01-06T00:19:20.543Z,0.89
2018-01-06T00:29:01.292Z,0.90
2018-01-06T00:38:30.144Z,0.87
2018-01-06T00:48:06.247Z,0.61
2018-01-06T00:57:42.888Z,0.64
2018-01-06T01:07:19.898Z,0.62
2018-01-06T01:16:56.886Z,0.52
2018-01-06T01:26:33.551Z,0.35
2018-01-06T01:36:10.226Z,0.34
2018-01-06T01:45:46.660Z,0.40
2018-01-06T01:55:23.799Z,0.16
2018-01-06T02:05:00.722Z,0.36
2018-01-06T02:14:37.657Z,0.28
2018-01-06T02:24:14.389Z,0.29
2018-01-06T02:33:51.517Z,0.21
2018-01-06T02:43:28.159Z,0.13
2018-01-06T02:53:08.869Z,0.14
2018-01-06T03:02:38.195Z,-0.01
2018-01-06T03:12:15.261Z,0.06
2018-01-06T03:21:51.888Z,0.07
2018-01-06T03:31:33.106Z,0.24
2018-01-06T03:41:02.604Z,0.29
2018-01-06T03:50:38.653Z,0.24
2018-01-06T04:00:15.454Z,0.45
2018-01-06T04:09:52.278Z,0.22
2018-01-06T04:19:28.851Z,0.14
2018-01-06T04:29:05.876Z,0.17
2018-01-06T04:38:42.575Z,0.06
2018-01-06T04:48:19.889Z,0.10
2018-01-06T04:57:56.530Z,0.09
2018-01-06T05:07:33.340Z,0.03
2018-01-06T05:17:09.906Z,-0.01
2018-01-06T05:26:46.491Z,-0.01
2018-01-06T05:36:22.403Z,0.06
2018-01-06T05:46:02.872Z,-0.14
2018-01-06T05:55:39.694Z,-0.14
2018-01-06T06:05:16.468Z,-0.17
2018-01-06T06:14:53.138Z,-0.25
2018-01-06T06:24:29.604Z,-0.20
2018-01-06T06:34:05.957Z,-0.14
2018-01-06T06:43:42.869Z,-0.20
2018-01-06T06:53:19.501Z,0.04
2018-01-06T07:02:56.392Z,0.09
2018-01-06T07:12:37.576Z,0.03
2018-01-06T07:22:06.201Z,0.27
2018-01-06T07:31:43.450Z,0.28
2018-01-06T07:41:20.160Z,0.49
2018-01-06T07:50:56.088Z,0.59
2018-01-06T08:00:36.791Z,0.71
2018-01-06T08:10:12.961Z,0.83
2018-01-06T08:19:49.375Z,0.98
2018-01-06T08:29:26.199Z,1.19
2018-01-06T08:39:03.241Z,1.56
2018-01-06T08:48:39.959Z,1.79
2018-01-06T08:58:16.680Z,2.06
2018-01-06T09:07:53.630Z,2.44
2018-01-06T09:17:30.729Z,2.98
2018-01-06T09:27:08.140Z,3.65
2018-01-06T09:36:46.175Z,4.22
2018-01-06T09:46:23.160Z,4.44
2018-01-06T09:56:00.661Z,5.08
2018-01-06T10:05:37.834Z,5.75
2018-01-06T10:15:15.585Z,6.37
2018-01-06T10:24:52.587Z,7.05
2018-01-06T10:34:30.156Z,7.39
2018-01-06T10:44:06.689Z,7.78
2018-01-06T10:53:43.526Z,8.07
2018-01-06T11:03:23.725Z,8.48
2018-01-06T11:12:52.692Z,9.88
2018-01-06T11:22:29.593Z,10.67
2018-01-06T11:32:10.531Z,11.11
2018-01-06T11:41:39.880Z,10.99
2018-01-06T11:51:16.677Z,10.01
2018-01-06T12:00:56.945Z,10.04
2018-01-06T12:10:24.872Z,9.13
2018-01-06T12:20:00.763Z,9.14
2018-01-06T12:29:37.380Z,9.90
2018-01-06T12:39:15.377Z,10.36
2018-01-06T12:48:55.104Z,12.88
2018-01-06T12:58:35.741Z,13.87
2018-01-06T13:08:04.868Z,11.24
2018-01-06T13:17:39.685Z,11.08
2018-01-06T13:27:14.291Z,9.50
2018-01-06T13:36:48.934Z,8.68
2018-01-06T13:46:24.852Z,8.66
2018-01-06T13:56:01.213Z,8.68
2018-01-06T14:05:38.256Z,9.10
2018-01-06T14:15:14.366Z,8.77
2018-01-06T14:24:50.391Z,8.22
2018-01-06T14:34:26.611Z,8.29
2018-01-06T14:44:02.028Z,8.18
2018-01-06T14:53:42.353Z,7.81
2018-01-06T15:03:18.339Z,7.42
2018-01-06T15:12:53.654Z,7.05
2018-01-06T15:22:29.262Z,6.63
2018-01-06T15:32:05.059Z,6.00
2018-01-06T15:41:40.039Z,5.68
2018-01-06T15:51:15.575Z,4.99
2018-01-06T16:00:51.275Z,4.69
2018-01-06T16:10:27.887Z,4.62
2018-01-06T16:20:03.919Z,4.41
2018-01-06T16:29:39.892Z,4.34
2018-01-06T16:39:20.350Z,4.02
2018-01-06T16:48:48.775Z,4.36
2018-01-06T16:58:25.125Z,4.00
2018-01-06T17:08:01.509Z,3.89
2018-01-06T17:17:38.036Z,3.66
2018-01-06T17:27:16.842Z,3.77
2018-01-06T17:36:46.519Z,3.51
2018-01-06T17:46:22.834Z,3.27
2018-01-06T17:55:59.066Z,3.09
2018-01-06T18:05:35.363Z,2.77
2018-01-06T18:15:11.714Z,2.57
2018-01-06T18:24:47.626Z,2.68
2018-01-06T18:34:24.408Z,2.56
2018-01-06T18:44:00.693Z,2.38
2018-01-06T18:53:36.207Z,2.55
2018-01-06T19:03:12.595Z,2.31
2018-01-06T19:12:49.264Z,2.26
2018-01-06T19:22:25.168Z,2.42
2018-01-06T19:32:01.915Z,2.31
2018-01-06T19:41:38.457Z,2.24
2018-01-06T19:51:15.147Z,2.23
2018-01-06T20:00:51.437Z,1.98
2018-01-06T20:10:28.420Z,1.98
2018-01-06T20:20:02.263Z,1.99
2018-01-06T20:29:38.556Z,1.91
2018-01-06T20:39:14.901Z,1.90
2018-01-06T20:48:50.747Z,2.12
2018-01-06T20:58:27.452Z,2.28
2018-01-06T21:08:04.092Z,2.16
2018-01-06T21:17:40.076Z,2.09
2018-01-06T21:27:16.308Z,2.03
2018-01-06T21:36:52.827Z,1.82
2018-01-06T21:46:29.403Z,1.86
2018-01-06T21:56:05.996Z,1.61
2018-01-06T22:05:46.702Z,1.59
2018-01-06T22:15:15.509Z,1.59
2018-01-06T22:24:52.174Z,1.43
2018-01-06T22:34:28.630Z,1.38
2018-01-06T22:44:04.980Z,1.15
2018-01-06T22:53:41.562Z,1.28
2018-01-06T23:03:17.951Z,1.12
2018-01-06T23:12:54.692Z,1.12
2018-01-06T23:22:30.576Z,0.83
2018-01-06T23:32:07.271Z,1.07
2018-01-06T23:41:44.410Z,0.97
2018-01-06T23:51:20.491Z,0.84
